createdAt,value
2022-09-15T00:02:46.670Z,98.43
2022-09-15T00:05:48.611Z,98.48
2022-09-15T00:08:50.231Z,98.55
2022-09-15T00:11:51.824Z,98.26
2022-09-15T00:14:53.835Z,98.36
2022-09-15T00:17:55.519Z,98.15
2022-09-15T00:20:57.362Z,98.11
2022-09-15T00:24:00.356Z,98.22
2022-09-15T00:27:02.179Z,98.39
2022-09-15T00:30:05.146Z,98.04
2022-09-15T00:33:07.339Z,98.32
2022-09-15T00:36:11.282Z,98.93
2022-09-15T00:39:13.047Z,99.55
2022-09-15T00:42:20.163Z,100.00
2022-09-15T00:45:21.780Z,100.00
2022-09-15T00:48:23.472Z,100.00
2022-09-15T00:51:32.629Z,100.00
2022-09-15T00:54:49.315Z,100.00
2022-09-15T00:57:59.903Z,100.00
2022-09-15T01:01:04.709Z,100.00
2022-09-15T01:04:06.357Z,100.00
2022-09-15T01:07:11.068Z,100.00
2022-09-15T01:10:17.690Z,100.00
2022-09-15T01:13:19.316Z,100.00
2022-09-15T01:16:39.387Z,100.00
2022-09-15T01:19:43.923Z,100.00
2022-09-15T01:23:23.246Z,100.00
2022-09-15T01:26:40.071Z,100.00
2022-09-15T01:29:56.860Z,100.00
2022-09-15T01:33:09.475Z,100.00
2022-09-15T01:36:25.329Z,100.00
2022-09-15T01:39:36.589Z,100.00
2022-09-15T01:42:40.343Z,100.00
2022-09-15T01:45:45.401Z,100.00
2022-09-15T01:48:50.044Z,100.00
2022-09-15T01:51:54.060Z,99.15
2022-09-15T01:54:59.036Z,98.07
2022-09-15T01:58:00.608Z,97.46
2022-09-15T02:01:23.580Z,96.87
2022-09-15T02:04:38.182Z,94.85
2022-09-15T02:07:59.178Z,93.68
2022-09-15T02:11:11.680Z,92.59
2022-09-15T02:14:20.833Z,92.68
2022-09-15T02:17:26.770Z,93.00
2022-09-15T02:20:44.404Z,93.59
2022-09-15T02:23:53.481Z,94.08
2022-09-15T02:26:55.430Z,94.62
2022-09-15T02:30:05.934Z,94.99
2022-09-15T02:33:14.202Z,94.94
2022-09-15T02:36:19.884Z,95.22
2022-09-15T02:39:27.236Z,95.29
2022-09-15T02:42:31.234Z,95.32
2022-09-15T02:45:32.989Z,95.44
2022-09-15T02:48:35.439Z,95.68
2022-09-15T02:51:37.131Z,95.76
2022-09-15T02:54:38.729Z,95.94
2022-09-15T02:57:40.309Z,96.20
2022-09-15T03:00:42.565Z,96.25
2022-09-15T03:03:45.578Z,97.52
2022-09-15T03:06:47.187Z,98.59
2022-09-15T03:09:48.743Z,99.41
2022-09-15T03:12:52.994Z,99.49
2022-09-15T03:15:54.561Z,99.32
2022-09-15T03:18:59.298Z,99.59
2022-09-15T03:22:00.881Z,99.64
2022-09-15T03:25:04.870Z,99.29
2022-09-15T03:28:06.392Z,99.33
2022-09-15T03:31:09.299Z,99.14
2022-09-15T03:34:10.960Z,98.78
2022-09-15T03:37:12.699Z,98.70
2022-09-15T03:40:14.414Z,98.54
2022-09-15T03:43:18.743Z,98.38
2022-09-15T03:46:20.662Z,97.90
2022-09-15T03:49:22.440Z,97.97
2022-09-15T03:52:24.048Z,97.64
2022-09-15T03:55:25.737Z,97.80
2022-09-15T03:58:30.646Z,97.75
2022-09-15T04:01:33.114Z,97.59
2022-09-15T04:04:34.851Z,97.81
2022-09-15T04:07:36.752Z,97.82
2022-09-15T04:10:39.691Z,97.22
2022-09-15T04:13:42.410Z,96.94
2022-09-15T04:16:44.142Z,96.79
2022-09-15T04:19:45.763Z,96.60
2022-09-15T04:22:47.495Z,96.53
2022-09-15T04:26:19.055Z,96.54
2022-09-15T04:29:20.649Z,96.51
2022-09-15T04:32:22.288Z,96.10
2022-09-15T04:35:23.909Z,95.78
2022-09-15T04:38:25.518Z,95.85
2022-09-15T04:41:28.290Z,95.97
2022-09-15T04:44:29.973Z,96.20
2022-09-15T04:47:31.638Z,96.39
2022-09-15T04:50:33.873Z,96.57
2022-09-15T04:53:40.686Z,96.72
2022-09-15T04:56:42.664Z,96.77
2022-09-15T04:59:44.281Z,96.85
2022-09-15T05:02:46.544Z,96.71
2022-09-15T05:05:48.174Z,97.06
2022-09-15T05:08:51.591Z,97.26
2022-09-15T05:11:53.302Z,97.12
2022-09-15T05:14:54.957Z,97.67
2022-09-15T05:17:56.543Z,97.33
2022-09-15T05:21:02.221Z,97.43
2022-09-15T05:24:24.306Z,97.54
2022-09-15T05:27:25.981Z,97.66
2022-09-15T05:30:44.515Z,97.71
2022-09-15T05:33:48.233Z,97.76
2022-09-15T05:36:49.938Z,97.03
2022-09-15T05:39:51.695Z,96.63
2022-09-15T05:42:53.455Z,96.51
2022-09-15T05:45:55.504Z,96.66
2022-09-15T05:48:58.789Z,96.60
2022-09-15T05:52:00.636Z,96.32
2022-09-15T05:55:02.266Z,95.99
2022-09-15T05:58:04.374Z,95.81
2022-09-15T06:01:13.785Z,95.68
2022-09-15T06:04:15.344Z,95.74
2022-09-15T06:07:17.038Z,95.70
2022-09-15T06:10:18.652Z,95.59
2022-09-15T06:13:20.249Z,95.79
2022-09-15T06:16:24.067Z,95.66
2022-09-15T06:19:25.825Z,95.55
2022-09-15T06:22:27.978Z,95.49
2022-09-15T06:25:29.607Z,95.36
2022-09-15T06:28:31.263Z,95.07
2022-09-15T06:31:34.143Z,95.12
2022-09-15T06:34:35.803Z,94.75
2022-09-15T06:37:37.378Z,94.38
2022-09-15T06:40:39.096Z,94.78
2022-09-15T06:43:41.303Z,94.74
2022-09-15T06:46:42.913Z,94.82
2022-09-15T06:49:44.498Z,94.72
2022-09-15T06:52:46.103Z,94.01
2022-09-15T06:55:47.841Z,93.36
2022-09-15T06:58:50.067Z,93.25
2022-09-15T07:01:55.861Z,92.93
2022-09-15T07:04:57.547Z,93.15
2022-09-15T07:07:59.136Z,92.80
2022-09-15T07:11:01.690Z,91.98
2022-09-15T07:14:04.297Z,91.91
2022-09-15T07:17:05.862Z,90.97
2022-09-15T07:20:07.766Z,90.46
2022-09-15T07:23:09.467Z,88.93
2022-09-15T07:26:18.528Z,88.88
2022-09-15T07:29:20.161Z,88.46
2022-09-15T07:32:21.942Z,88.02
2022-09-15T07:35:23.630Z,87.24
2022-09-15T07:38:25.282Z,87.31
2022-09-15T07:41:29.317Z,86.20
2022-09-15T07:44:31.019Z,84.79
2022-09-15T07:47:32.786Z,83.72
2022-09-15T07:50:34.472Z,82.95
2022-09-15T07:53:36.063Z,82.53
2022-09-15T07:56:42.333Z,82.13
2022-09-15T07:59:44.019Z,81.24
2022-09-15T08:02:45.599Z,81.61
2022-09-15T08:05:47.246Z,80.10
2022-09-15T08:08:51.729Z,78.61
2022-09-15T08:11:54.711Z,76.50
2022-09-15T08:14:56.388Z,76.54
2022-09-15T08:17:58.069Z,77.29
2022-09-15T08:20:59.854Z,78.28
2022-09-15T08:24:01.589Z,79.22
2022-09-15T08:27:04.869Z,79.09
2022-09-15T08:30:07.486Z,78.45
2022-09-15T08:33:09.100Z,77.93
2022-09-15T08:36:11.476Z,78.25
2022-09-15T08:39:13.037Z,77.64
2022-09-15T08:42:16.981Z,76.28
2022-09-15T08:45:28.652Z,75.96
2022-09-15T08:48:39.469Z,77.10
2022-09-15T08:51:48.688Z,75.43
2022-09-15T08:54:54.957Z,74.12
2022-09-15T08:57:56.791Z,74.05
2022-09-15T09:01:14.913Z,74.51
2022-09-15T09:04:22.584Z,75.18
2022-09-15T09:08:01.299Z,74.15
2022-09-15T09:11:24.543Z,73.55
2022-09-15T09:14:26.138Z,74.62
2022-09-15T09:17:58.807Z,74.27
2022-09-15T09:21:09.574Z,75.32
2022-09-15T09:24:19.999Z,74.31
2022-09-15T09:27:28.491Z,73.91
2022-09-15T09:30:33.301Z,73.14
2022-09-15T09:33:47.562Z,73.90
2022-09-15T09:36:57.390Z,74.30
2022-09-15T09:39:59.025Z,73.86
2022-09-15T09:43:01.074Z,72.64
2022-09-15T09:46:02.799Z,71.79
2022-09-15T09:49:23.965Z,69.95
2022-09-15T09:52:36.320Z,69.47
2022-09-15T09:55:41.231Z,70.31
2022-09-15T09:58:43.356Z,68.64
2022-09-15T10:02:24.806Z,66.36
2022-09-15T10:05:26.694Z,66.74
2022-09-15T10:08:28.650Z,65.20
2022-09-15T10:11:55.002Z,67.38
2022-09-15T10:15:05.721Z,66.53
2022-09-15T10:18:29.310Z,65.98
2022-09-15T10:21:30.980Z,66.46
2022-09-15T10:24:38.813Z,65.60
2022-09-15T10:27:40.430Z,66.65
2022-09-15T10:31:21.450Z,66.78
2022-09-15T10:34:31.550Z,65.08
2022-09-15T10:37:52.189Z,64.70
2022-09-15T10:41:07.348Z,64.50
2022-09-15T10:44:30.252Z,66.16
2022-09-15T10:47:54.406Z,64.52
2022-09-15T10:51:05.687Z,65.28
2022-09-15T10:54:28.061Z,65.79
2022-09-15T10:58:07.283Z,66.20
2022-09-15T11:01:52.966Z,65.67
2022-09-15T11:05:21.993Z,65.56
2022-09-15T11:08:29.570Z,66.00
2022-09-15T11:11:40.745Z,66.57
2022-09-15T11:15:10.251Z,66.13
2022-09-15T11:18:25.289Z,67.19
2022-09-15T11:21:36.694Z,68.43
2022-09-15T11:24:48.452Z,67.73
2022-09-15T11:28:26.605Z,68.14
2022-09-15T11:31:34.385Z,67.58
2022-09-15T11:34:42.726Z,68.02
2022-09-15T11:37:50.707Z,66.75
2022-09-15T11:41:07.545Z,65.51
2022-09-15T11:44:16.670Z,64.16
2022-09-15T11:47:30.761Z,64.21
2022-09-15T11:50:39.488Z,62.92
2022-09-15T11:53:50.995Z,64.02
2022-09-15T11:56:55.295Z,63.84
2022-09-15T12:00:12.280Z,63.10
2022-09-15T12:03:19.658Z,63.22
2022-09-15T12:06:44.816Z,64.69
2022-09-15T12:09:48.241Z,63.60
2022-09-15T12:12:53.946Z,63.31
2022-09-15T12:15:57.492Z,63.67
2022-09-15T12:19:24.820Z,63.43
2022-09-15T12:22:50.140Z,64.67
2022-09-15T12:26:14.711Z,65.91
2022-09-15T12:29:42.018Z,67.77
2022-09-15T12:32:44.351Z,68.57
2022-09-15T12:35:46.002Z,68.89
2022-09-15T12:38:49.529Z,69.02
2022-09-15T12:42:06.787Z,68.64
2022-09-15T12:45:24.376Z,68.05
2022-09-15T12:48:33.780Z,67.09
2022-09-15T12:51:36.533Z,67.26
2022-09-15T12:54:42.674Z,64.79
2022-09-15T12:57:51.676Z,64.86
2022-09-15T13:01:19.381Z,63.69
2022-09-15T13:04:51.683Z,64.17
2022-09-15T13:07:56.240Z,65.47
2022-09-15T13:11:02.622Z,63.62
2022-09-15T13:14:04.296Z,63.75
2022-09-15T13:17:13.802Z,63.75
2022-09-15T13:20:23.373Z,63.47
2022-09-15T13:23:27.195Z,64.52
2022-09-15T13:26:31.914Z,67.14
2022-09-15T13:29:40.135Z,68.85
2022-09-15T13:32:57.153Z,69.49
2022-09-15T13:36:02.077Z,69.91
2022-09-15T13:39:25.059Z,70.42
2022-09-15T13:42:53.488Z,70.72
2022-09-15T13:46:04.905Z,70.33
2022-09-15T13:49:40.123Z,68.68
2022-09-15T13:53:15.069Z,68.62
2022-09-15T13:56:27.311Z,68.58
2022-09-15T13:59:32.588Z,67.18
2022-09-15T14:02:34.479Z,65.81
2022-09-15T14:05:36.889Z,65.50
2022-09-15T14:08:40.444Z,64.84
2022-09-15T14:11:43.503Z,65.92
2022-09-15T14:14:46.699Z,64.82
2022-09-15T14:17:48.401Z,63.73
2022-09-15T14:21:04.287Z,64.25
2022-09-15T14:24:17.208Z,63.31
2022-09-15T14:27:27.949Z,63.72
2022-09-15T14:30:32.060Z,63.36
2022-09-15T14:33:38.294Z,63.93
2022-09-15T14:36:40.813Z,64.04
2022-09-15T14:39:49.859Z,62.37
2022-09-15T14:42:51.735Z,62.33
2022-09-15T14:45:57.188Z,62.27
2022-09-15T14:49:11.757Z,61.51
2022-09-15T14:52:27.901Z,62.25
2022-09-15T14:56:01.301Z,60.87
2022-09-15T14:59:14.909Z,60.58
2022-09-15T15:02:44.331Z,61.10
2022-09-15T15:05:58.042Z,61.20
2022-09-15T15:09:28.830Z,62.00
2022-09-15T15:12:35.162Z,61.92
2022-09-15T15:15:38.077Z,62.49
2022-09-15T15:18:41.541Z,62.99
2022-09-15T15:21:44.527Z,62.30
2022-09-15T15:24:49.586Z,62.42
2022-09-15T15:27:56.014Z,62.51
2022-09-15T15:31:16.471Z,62.17
2022-09-15T15:34:27.485Z,62.53
2022-09-15T15:37:31.803Z,63.70
2022-09-15T15:40:35.044Z,63.65
2022-09-15T15:43:36.714Z,64.10
2022-09-15T15:46:50.595Z,64.31
2022-09-15T15:50:12.892Z,65.42
2022-09-15T15:53:15.215Z,65.63
2022-09-15T15:56:25.589Z,65.60
2022-09-15T15:59:30.173Z,65.67
2022-09-15T16:02:31.814Z,65.83
2022-09-15T16:05:34.550Z,65.54
2022-09-15T16:08:39.910Z,65.73
2022-09-15T16:11:43.031Z,65.05
2022-09-15T16:14:44.838Z,65.05
2022-09-15T16:17:47.298Z,63.55
2022-09-15T16:20:51.371Z,64.25
2022-09-15T16:23:53.369Z,64.69
2022-09-15T16:26:55.093Z,65.45
2022-09-15T16:29:56.689Z,64.79
2022-09-15T16:32:59.142Z,65.03
2022-09-15T16:36:06.854Z,65.12
2022-09-15T16:39:08.566Z,65.48
2022-09-15T16:42:10.740Z,66.38
2022-09-15T16:45:39.855Z,66.43
2022-09-15T16:48:44.024Z,66.89
2022-09-15T16:51:48.186Z,66.71
2022-09-15T16:54:49.853Z,67.60
2022-09-15T16:57:51.452Z,67.28
2022-09-15T17:00:53.713Z,67.75
2022-09-15T17:03:55.885Z,68.04
2022-09-15T17:06:57.477Z,67.65
2022-09-15T17:09:59.051Z,67.87
2022-09-15T17:13:01.724Z,67.87
2022-09-15T17:16:03.392Z,67.93
2022-09-15T17:19:05.003Z,68.34
2022-09-15T17:22:08.561Z,67.60
2022-09-15T17:25:29.378Z,72.55
2022-09-15T17:28:36.476Z,75.02
2022-09-15T17:31:38.260Z,78.18
2022-09-15T17:34:39.876Z,79.70
2022-09-15T17:37:41.438Z,79.75
2022-09-15T17:40:43.082Z,81.55
2022-09-15T17:43:44.863Z,82.01
2022-09-15T17:46:46.533Z,82.46
2022-09-15T17:49:48.136Z,83.07
2022-09-15T17:52:50.930Z,82.97
2022-09-15T17:55:54.677Z,84.42
2022-09-15T17:58:56.250Z,86.84
2022-09-15T18:01:57.902Z,88.52
2022-09-15T18:05:00.113Z,88.55
2022-09-15T18:08:04.994Z,88.86
2022-09-15T18:11:07.462Z,89.08
2022-09-15T18:14:10.536Z,89.89
2022-09-15T18:17:12.134Z,90.57
2022-09-15T18:20:19.905Z,90.69
2022-09-15T18:23:23.993Z,90.71
2022-09-15T18:26:28.466Z,89.92
2022-09-15T18:29:29.975Z,89.91
2022-09-15T18:32:33.042Z,89.00
2022-09-15T18:35:34.635Z,89.61
2022-09-15T18:38:36.551Z,89.15
2022-09-15T18:41:38.990Z,89.49
2022-09-15T18:44:40.606Z,89.06
2022-09-15T18:47:42.771Z,89.26
2022-09-15T18:50:45.152Z,89.67
2022-09-15T18:53:49.757Z,89.39
2022-09-15T18:56:53.699Z,88.76
2022-09-15T18:59:55.324Z,88.68
2022-09-15T19:02:59.120Z,89.92
2022-09-15T19:06:05.309Z,90.18
2022-09-15T19:09:06.904Z,88.60
2022-09-15T19:12:08.516Z,88.60
2022-09-15T19:15:12.262Z,88.58
2022-09-15T19:18:13.819Z,87.69
2022-09-15T19:21:16.002Z,88.33
2022-09-15T19:24:17.862Z,88.75
2022-09-15T19:27:19.725Z,88.06
2022-09-15T19:30:21.290Z,87.64
2022-09-15T19:33:23.000Z,87.63
2022-09-15T19:36:28.498Z,87.98
2022-09-15T19:39:30.573Z,87.85
2022-09-15T19:42:32.234Z,88.64
2022-09-15T19:45:33.814Z,88.84
2022-09-15T19:48:38.610Z,89.07
2022-09-15T19:51:43.289Z,88.14
2022-09-15T19:54:44.939Z,88.30
2022-09-15T19:57:46.621Z,89.26
2022-09-15T20:00:53.246Z,89.35
2022-09-15T20:03:56.089Z,90.33
2022-09-15T20:06:58.183Z,90.54
2022-09-15T20:09:59.783Z,90.17
2022-09-15T20:13:01.619Z,90.44
2022-09-15T20:16:03.540Z,89.58
2022-09-15T20:19:05.389Z,89.48
2022-09-15T20:22:06.953Z,90.02
2022-09-15T20:25:08.570Z,90.61
2022-09-15T20:28:10.116Z,90.52
2022-09-15T20:31:18.231Z,89.41
2022-09-15T20:34:19.827Z,90.16
2022-09-15T20:37:23.032Z,90.21
2022-09-15T20:40:24.640Z,90.38
2022-09-15T20:43:26.908Z,89.23
2022-09-15T20:46:31.595Z,89.81
2022-09-15T20:49:33.202Z,88.75
2022-09-15T20:52:38.223Z,88.95
2022-09-15T20:55:40.162Z,88.54
2022-09-15T20:58:42.053Z,89.50
2022-09-15T21:01:43.974Z,89.11
2022-09-15T21:04:45.802Z,89.14
2022-09-15T21:07:48.453Z,89.82
2022-09-15T21:10:50.027Z,90.55
2022-09-15T21:13:51.796Z,90.62
2022-09-15T21:16:54.093Z,90.51
2022-09-15T21:19:55.693Z,90.60
2022-09-15T21:22:57.667Z,90.77
2022-09-15T21:26:02.268Z,91.37
2022-09-15T21:29:04.258Z,90.50
2022-09-15T21:32:06.053Z,91.06
2022-09-15T21:35:08.813Z,91.32
2022-09-15T21:38:11.078Z,90.60
2022-09-15T21:41:16.037Z,91.37
2022-09-15T21:44:17.660Z,91.29
2022-09-15T21:47:19.189Z,90.50
2022-09-15T21:50:20.759Z,91.14
2022-09-15T21:53:22.557Z,90.92
2022-09-15T21:56:25.578Z,91.16
2022-09-15T21:59:27.140Z,91.37
2022-09-15T22:02:28.743Z,91.57
2022-09-15T22:05:30.334Z,91.36
2022-09-15T22:08:33.056Z,91.63
2022-09-15T22:11:35.716Z,91.55
2022-09-15T22:14:37.255Z,91.91
2022-09-15T22:17:38.853Z,91.69
2022-09-15T22:20:40.559Z,91.75
2022-09-15T22:23:43.550Z,91.33
2022-09-15T22:26:45.242Z,91.21
2022-09-15T22:29:46.794Z,91.11
2022-09-15T22:32:48.334Z,90.76
2022-09-15T22:35:49.906Z,90.21
2022-09-15T22:38:52.365Z,90.00
2022-09-15T22:41:53.971Z,88.43
2022-09-15T22:44:55.566Z,88.73
2022-09-15T22:47:57.059Z,88.14
2022-09-15T22:50:59.043Z,88.58
2022-09-15T22:54:02.940Z,88.39
2022-09-15T22:57:04.703Z,88.07
2022-09-15T23:00:07.101Z,88.91
2022-09-15T23:03:10.054Z,87.75
2022-09-15T23:06:11.601Z,88.75
2022-09-15T23:09:15.298Z,88.24
2022-09-15T23:12:16.913Z,88.22
2022-09-15T23:15:19.116Z,88.91
2022-09-15T23:18:20.738Z,88.80
2022-09-15T23:21:22.534Z,89.04
2022-09-15T23:24:24.096Z,88.75
2022-09-15T23:27:25.763Z,88.87
2022-09-15T23:30:27.385Z,88.30
2022-09-15T23:33:31.486Z,88.48
2022-09-15T23:36:33.086Z,88.59
2022-09-15T23:39:34.676Z,88.55
2022-09-15T23:42:36.263Z,88.33
2022-09-15T23:45:38.356Z,88.27
2022-09-15T23:48:40.351Z,88.41
2022-09-15T23:51:41.893Z,88.68
2022-09-15T23:54:43.871Z,89.28
2022-09-15T23:57:45.415Z,89.17
